Latest Coastal Weather Observations for Arlington Reef

IDQ60701

Issued at 8:12 am EST Saturday 23 May 2015 (issued every 10 minutes, with the page automatically refreshed every 10 minutes)

About coastal observations | Map of coastal stations | Coastal observations for QLD | Marine services | Other Formats
Station Details ID: 200879 Name: ARLINGTON REEF Lat: -16.72 Lon: 146.11 Height: 0.0 m
Data from the previous 72 hours. | See also: Recent months at Arlington Reef
Date/Time
EST
Temp

°C
Wind Pressure Rain
since 9am
mm
Weather Cloud Vis
km
Sea
Height
m
Swell
Dir
 
Speed
knots
Gust
knots
hPa Trend Height
m
Period
s
Dir
23/08:00am - SSE 25 31 1017.4 - - - - - - - - -
23/07:30am - SSE 25 30 1017.0 - - - - - - - - -
23/07:00am - SSE 26 31 1016.8 - - - - - - - - -
23/06:30am - SSE 25 30 1016.3 - - - - - - - - -
23/06:00am - SSE 25 31 1016.0 - - - - - - - - -
23/05:30am - SSE 25 30 1015.7 - - - - - - - - -
23/05:00am - SSE 25 30 1015.4 - - - - - - - - -
23/04:30am - SSE 24 28 1015.4 - - - - - - - - -
23/04:00am - SSE 23 26 1015.5 - - - - - - - - -
23/03:30am - SSE 24 29 1015.3 - - - - - - - - -
23/03:00am - SSE 23 28 1015.3 - - - - - - - - -
23/02:30am - SE 19 23 1015.6 - - - - - - - - -
23/02:00am - SE 20 23 1015.8 - - - - - - - - -
23/01:30am - SE 19 22 1015.9 - - - - - - - - -
23/01:00am - SE 18 21 1016.0 - - - - - - - - -
23/12:30am - SSE 18 22 1016.1 - - - - - - - - -
23/12:00am - SSE 18 21 1016.3 - - - - - - - - -
 
Date/Time
EST
Temp

°C
Wind Pressure Rain
since 9am
mm
Weather Cloud Vis
km
Sea
Height
m
Swell
Dir
 
Speed
knots
Gust
knots
hPa Trend Height
m
Period
s
Dir
22/11:30pm - SSE 18 21 1016.5 - - - - - - - - -
22/11:00pm - SSE 17 20 1016.8 - - - - - - - - -
22/10:30pm - SSE 17 20 1016.8 - - - - - - - - -
22/10:00pm - SSE 17 20 1016.7 - - - - - - - - -
22/09:30pm - SE 17 20 1016.7 - - - - - - - - -
22/09:00pm - SE 19 21 1016.6 - - - - - - - - -
22/08:30pm - SE 19 22 1016.5 - - - - - - - - -
22/08:00pm - SE 19 22 1016.3 - - - - - - - - -
22/07:30pm - SE 20 23 1016.0 - - - - - - - - -
22/07:00pm - SE 20 23 1015.9 - - - - - - - - -
22/06:30pm - SE 20 23 1015.8 - - - - - - - - -
22/06:00pm - SE 19 23 1015.5 - - - - - - - - -
22/05:30pm - SE 20 23 1015.2 - - - - - - - - -
22/05:00pm - SSE 19 23 1014.8 - - - - - - - - -
22/04:30pm - SSE 20 23 1014.5 - - - - - - - - -
22/04:00pm - SSE 18 23 1014.6 - - - - - - - - -
22/03:30pm - SSE 19 23 1014.6 - - - - - - - - -
22/03:00pm - SSE 19 23 1014.6 - - - - - - - - -
22/02:30pm - SSE 20 23 1014.6 - - - - - - - - -
22/02:00pm - SSE 19 22 1014.8 - - - - - - - - -
22/01:30pm - SSE 20 23 1014.9 - - - - - - - - -
22/01:00pm - SSE 20 24 1015.3 - - - - - - - - -
22/12:30pm - SSE 21 25 1015.7 - - - - - - - - -
22/12:00pm - SSE 21 24 1015.9 - - - - - - - - -
22/11:30am - SSE 22 25 1016.3 - - - - - - - - -
22/11:00am - S 21 26 1016.7 - - - - - - - - -
22/10:30am - S 17 20 1017.1 - - - - - - - - -
22/10:00am - SSE 17 20 1017.1 - - - - - - - - -
22/09:30am - S 14 16 1017.2 - - - - - - - - -
22/09:00am - S 15 18 1017.2 - - - - - - - - -
22/08:30am - S 15 17 1017.0 - - - - - - - - -
22/08:00am - S 14 16 1016.9 - - - - - - - - -
22/07:30am - S 13 15 1016.8 - - - - - - - - -
22/07:00am - S 13 16 1016.5 - - - - - - - - -
22/06:30am - S 14 15 1016.0 - - - - - - - - -
22/06:00am - S 12 14 1015.8 - - - - - - - - -
22/05:30am - SSE 11 13 1015.6 - - - - - - - - -
22/05:00am - SSE 9 11 1015.3 - - - - - - - - -
22/04:30am - SSE 9 11 1015.2 - - - - - - - - -
22/04:00am - SSE 8 10 1015.0 - - - - - - - - -
22/03:30am - SSE 7 9 1015.1 - - - - - - - - -
22/03:00am - SE 8 10 1015.2 - - - - - - - - -
22/02:30am - SSE 8 9 1015.3 - - - - - - - - -
22/02:00am - SSE 7 9 1015.4 - - - - - - - - -
22/01:30am - SE 7 9 1015.6 - - - - - - - - -
22/01:00am - SE 7 8 1015.8 - - - - - - - - -
22/12:30am - ESE 7 9 1015.9 - - - - - - - - -
22/12:00am - ESE 8 9 1016.3 - - - - - - - - -
 
Date/Time
EST
Temp

°C
Wind Pressure Rain
since 9am
mm
Weather Cloud Vis
km
Sea
Height
m
Swell
Dir
 
Speed
knots
Gust
knots
hPa Trend Height
m
Period
s
Dir
21/11:30pm - SE 7 8 1016.7 - - - - - - - - -
21/11:00pm - SE 8 9 1017.0 - - - - - - - - -
21/10:30pm - SE 8 10 1017.1 - - - - - - - - -
21/10:00pm - SE 7 9 1017.0 - - - - - - - - -
21/09:30pm - SSE 8 10 1017.0 - - - - - - - - -
21/09:00pm - SE 8 10 1017.0 - - - - - - - - -
21/08:30pm - SE 8 9 1017.0 - - - - - - - - -
21/08:00pm - SE 9 11 1016.8 - - - - - - - - -
21/07:30pm - SE 9 11 1016.4 - - - - - - - - -
21/07:00pm - SE 9 11 1016.0 - - - - - - - - -
21/06:30pm - SE 11 13 1015.8 - - - - - - - - -
21/06:00pm - SE 11 13 1015.4 - - - - - - - - -
21/05:30pm - SE 11 13 1015.1 - - - - - - - - -
21/05:00pm - SE 11 13 1015.0 - - - - - - - - -
21/04:30pm - SE 11 13 1014.8 - - - - - - - - -
21/04:00pm - SE 11 13 1014.7 - - - - - - - - -
21/03:30pm - SE 10 12 1014.8 - - - - - - - - -
21/03:00pm - SE 11 12 1014.8 - - - - - - - - -
21/02:30pm - SE 10 13 1015.0 - - - - - - - - -
21/02:00pm - SE 10 12 1015.2 - - - - - - - - -
21/01:30pm - SSE 11 13 1015.5 - - - - - - - - -
21/01:00pm - SSE 13 15 1015.8 - - - - - - - - -
21/12:30pm - S 12 13 1016.3 - - - - - - - - -
21/12:00pm - S 12 14 1016.8 - - - - - - - - -
21/11:30am - SSE 12 15 1017.3 - - - - - - - - -
21/11:00am - SSE 12 14 1017.5 - - - - - - - - -
21/10:30am - SSE 12 14 1017.8 - - - - - - - - -
21/10:00am - SSE 13 14 1018.1 - - - - - - - - -
21/09:30am - S 12 14 1018.3 - - - - - - - - -
21/09:00am - SSE 11 13 1018.1 - - - - - - - - -
21/08:30am - SSE 13 15 1018.0 - - - - - - - - -
21/08:00am - SSE 11 14 1017.6 - - - - - - - - -
21/07:30am - S 12 14 1017.4 - - - - - - - - -
21/07:00am - S 12 14 1017.1 - - - - - - - - -
21/06:30am - SSE 11 13 1016.7 - - - - - - - - -
21/06:00am - SE 10 12 1016.4 - - - - - - - - -
21/05:30am - SE 10 12 1016.2 - - - - - - - - -
21/05:00am - SSE 9 11 1015.9 - - - - - - - - -
21/04:30am - SSE 9 10 1015.8 - - - - - - - - -
21/04:00am - SSE 9 10 1015.9 - - - - - - - - -
21/03:30am - SSE 9 10 1016.0 - - - - - - - - -
21/03:00am - SE 10 11 1015.9 - - - - - - - - -
21/02:30am - SE 12 13 1016.1 - - - - - - - - -
21/02:00am - SSE 12 14 1016.2 - - - - - - - - -
21/01:30am - SSE 11 13 1016.5 - - - - - - - - -
21/01:00am - SSE 12 15 1016.8 - - - - - - - - -
21/12:30am - SE 13 15 1017.0 - - - - - - - - -
21/12:00am - SE 13 15 1017.2 - - - - - - - - -
 
Date/Time
EST
Temp

°C
Wind Pressure Rain
since 9am
mm
Weather Cloud Vis
km
Sea
Height
m
Swell
Dir
 
Speed
knots
Gust
knots
hPa Trend Height
m
Period
s
Dir
20/11:30pm - SSE 13 16 1017.3 - - - - - - - - -
20/11:00pm - SSE 13 15 1017.6 - - - - - - - - -
20/10:30pm - SSE 12 15 1017.7 - - - - - - - - -
20/10:00pm - SSE 12 14 1017.6 - - - - - - - - -
20/09:30pm - SSE 13 14 1017.5 - - - - - - - - -
20/09:00pm - SSE 13 15 1017.5 - - - - - - - - -
20/08:30pm - SSE 14 16 1017.3 - - - - - - - - -
20/08:00pm - SSE 14 16 1017.0 - - - - - - - - -
20/07:30pm - SSE 14 16 1016.7 - - - - - - - - -
20/07:00pm - SSE 13 15 1016.3 - - - - - - - - -
20/06:30pm - SSE 12 15 1016.0 - - - - - - - - -
20/06:00pm - SSE 12 14 1015.7 - - - - - - - - -
20/05:30pm - SSE 12 14 1015.3 - - - - - - - - -
20/05:00pm - SSE 13 15 1015.1 - - - - - - - - -
20/04:30pm - SSE 12 14 1014.9 - - - - - - - - -
20/04:00pm - SSE 12 14 1014.8 - - - - - - - - -
20/03:30pm - SSE 12 15 1014.7 - - - - - - - - -
20/03:00pm - SSE 13 16 1014.8 - - - - - - - - -
20/02:30pm - S 15 18 1014.9 - - - - - - - - -
20/02:00pm - S 13 15 1015.2 - - - - - - - - -
20/01:30pm - S 12 15 1015.6 - - - - - - - - -
20/01:00pm - S 14 16 1016.0 - - - - - - - - -
20/12:30pm - S 14 17 1016.2 - - - - - - - - -
20/12:00pm - S 12 15 1016.5 - - - - - - - - -
20/11:30am - S 13 15 1016.8 - - - - - - - - -
20/11:00am - S 14 16 1017.1 - - - - - - - - -
20/10:30am - S 14 16 1017.3 - - - - - - - - -
20/10:00am - S 14 16 1017.3 - - - - - - - - -
20/09:30am - S 13 15 1017.4 - - - - - - - - -
20/09:00am - S 13 15 1017.2 - - - - - - - - -
20/08:30am - S 13 16 1017.1 - - - - - - - - -

Other Formats:

Comma delimited format used in spreadsheet applications
http://www.bom.gov.au/fwo/IDQ60701/IDQ60701.94284.axf

JavaScript Object Notation format (JSON) in row-major order
http://www.bom.gov.au/fwo/IDQ60701/IDQ60701.94284.json